Time;durP1;ratioP1;P1;durP2;ratioP2;P2;SDS_P1;SDS_P2;PMS_P1;PMS_P2;Temp;Humidity;BMP_temperature;BMP_pressure;BME280_temperature;BME280_humidity;BME280_pressure;Samples;Min_cycle;Max_cycle;Signal;HPM_P1;HPM_P2
2022/02/02 00:01:03;;;;;;;2.30;2.00;;;0.80;99.90;0.70;95799.00;;;;5021149;28;20445;-76
2022/02/02 00:03:54;;;;;;;2.17;1.57;;;0.90;99.90;0.60;95792.00;;;;5021086;28;20797;-77
2022/02/02 00:06:53;;;;;;;2.50;1.63;;;0.90;99.90;0.70;95788.00;;;;5015785;28;20413;-77
2022/02/02 00:09:50;;;;;;;1.53;1.30;;;0.80;99.90;0.60;95768.00;;;;5012406;28;20443;-77
2022/02/02 00:12:44;;;;;;;1.47;1.17;;;0.90;99.90;0.40;95771.00;;;;5024902;28;20452;-76
2022/02/02 00:15:44;;;;;;;1.77;1.63;;;0.90;99.90;0.50;95771.00;;;;5022531;28;20440;-75
2022/02/02 00:18:47;;;;;;;3.83;1.33;;;0.80;99.90;0.40;95750.00;;;;5019588;28;20472;-76
2022/02/02 00:21:44;;;;;;;1.70;1.47;;;0.80;99.90;0.30;95749.00;;;;5018143;28;20468;-76
2022/02/02 00:24:39;;;;;;;2.13;1.40;;;0.70;99.90;0.50;95784.00;;;;5018500;28;20427;-76
2022/02/02 00:27:28;;;;;;;2.03;1.47;;;0.70;99.90;0.40;95786.00;;;;5025085;28;20436;-76
2022/02/02 00:30:20;;;;;;;1.83;1.20;;;0.70;99.90;0.30;95790.00;;;;5025405;28;20420;-75
2022/02/02 00:33:19;;;;;;;2.17;1.07;;;0.70;99.90;0.40;95795.00;;;;5025127;28;20826;-75
2022/02/02 00:36:13;;;;;;;2.07;1.30;;;0.70;99.90;0.40;95805.00;;;;5027428;28;20451;-76
2022/02/02 00:39:02;;;;;;;2.00;1.23;;;0.70;99.90;0.00;95805.00;;;;5027573;28;20526;-77
2022/02/02 00:41:53;;;;;;;0.93;0.90;;;0.70;99.90;-0.10;95789.00;;;;5025641;28;20449;-77
2022/02/02 00:44:47;;;;;;;2.63;1.53;;;0.70;99.90;0.10;95793.00;;;;5019333;28;20443;-77
2022/02/02 00:47:39;;;;;;;1.23;1.13;;;0.60;99.90;0.30;95792.00;;;;5026175;28;20859;-76
2022/02/02 00:50:28;;;;;;;3.23;1.60;;;0.60;99.90;0.40;95801.00;;;;5013921;28;20435;-77
2022/02/02 00:53:18;;;;;;;2.30;1.70;;;0.60;99.90;0.50;95798.00;;;;5025781;28;20436;-77
2022/02/02 00:56:07;;;;;;;1.40;1.30;;;0.60;99.90;0.50;95785.00;;;;5028948;28;20417;-77
2022/02/02 00:58:56;;;;;;;1.53;1.43;;;0.60;99.90;0.50;95790.00;;;;5025509;28;20471;-76
2022/02/02 01:01:45;;;;;;;1.57;1.47;;;0.70;99.90;0.50;95768.00;;;;5022827;28;20451;-75
2022/02/02 01:04:35;;;;;;;1.50;1.40;;;0.70;99.90;0.60;95769.00;;;;5029919;28;20443;-77
2022/02/02 01:07:35;;;;;;;3.77;1.67;;;0.70;99.90;0.60;95768.00;;;;5029924;28;20431;-77
2022/02/02 01:10:31;;;;;;;3.60;1.80;;;0.70;99.90;0.70;95753.00;;;;5028815;28;20432;-77
2022/02/02 01:13:43;;;;;;;1.50;1.40;;;0.80;99.90;0.70;95757.00;;;;5029161;28;20425;-77
2022/02/02 01:19:40;;;;;;;3.23;1.50;;;0.90;99.90;0.60;95750.00;;;;5017904;28;20466;-76
2022/02/02 01:28:41;;;;;;;2.83;1.50;;;0.90;99.90;0.70;95764.00;;;;5029271;28;20439;-77
2022/02/02 01:31:30;;;;;;;1.50;1.40;;;0.90;99.90;0.70;95766.00;;;;5027608;28;20862;-76
2022/02/02 01:34:18;;;;;;;3.47;2.13;;;0.90;99.90;0.70;95762.00;;;;5028284;28;20451;-76
2022/02/02 01:37:08;;;;;;;2.77;1.67;;;0.90;99.90;0.70;95751.00;;;;5029426;28;20446;-77
2022/02/02 01:40:01;;;;;;;1.73;1.57;;;0.90;99.90;0.70;95750.00;;;;5025062;28;21013;-77
2022/02/02 01:42:57;;;;;;;1.93;1.43;;;0.90;99.90;0.70;95738.00;;;;5022222;28;20475;-76
2022/02/02 01:45:49;;;;;;;3.17;1.50;;;0.90;99.90;0.60;95740.00;;;;5018089;28;20455;-76
2022/02/02 01:48:45;;;;;;;3.37;1.93;;;0.80;99.90;0.40;95706.00;;;;5028319;28;20427;-77
2022/02/02 01:51:53;;;;;;;2.50;1.87;;;0.80;99.90;0.40;95691.00;;;;5028394;28;20975;-77
2022/02/02 01:54:54;;;;;;;2.30;1.77;;;0.80;99.90;0.40;95653.00;;;;5027795;28;20429;-77
2022/02/02 01:58:03;;;;;;;4.57;1.50;;;0.80;99.90;-0.10;95686.00;;;;5020116;28;20436;-77
2022/02/02 02:00:53;;;;;;;2.00;1.43;;;0.70;99.90;0.00;95692.00;;;;5016055;28;20448;-76
2022/02/02 02:03:42;;;;;;;2.50;1.67;;;0.60;99.90;0.10;95696.00;;;;5027058;28;20428;-77
2022/02/02 02:06:31;;;;;;;1.67;1.57;;;0.50;99.90;0.20;95704.00;;;;5027874;28;20435;-77
2022/02/02 02:09:24;;;;;;;1.77;1.67;;;0.50;99.90;0.20;95690.00;;;;5028559;28;20428;-76
2022/02/02 02:12:13;;;;;;;1.83;1.73;;;0.50;99.90;0.20;95705.00;;;;5028210;28;20986;-77
2022/02/02 02:15:05;;;;;;;2.73;1.97;;;0.50;99.90;0.20;95717.00;;;;5027301;28;20436;-76
2022/02/02 02:17:57;;;;;;;12.70;2.27;;;0.50;99.90;0.40;95723.00;;;;5029282;28;20428;-76
2022/02/02 02:20:46;;;;;;;1.97;1.77;;;0.60;99.90;0.40;95733.00;;;;5027623;28;20820;-77
2022/02/02 02:23:36;;;;;;;1.77;1.63;;;0.60;99.90;0.50;95728.00;;;;5026318;28;20429;-76
2022/02/02 02:26:27;;;;;;;2.37;2.17;;;0.60;99.90;0.60;95746.00;;;;5029289;28;20439;-76
2022/02/02 02:29:32;;;;;;;4.67;3.20;;;0.70;99.90;0.60;95767.00;;;;5015686;28;20436;-76
2022/02/02 02:32:38;;;;;;;4.90;4.27;;;0.70;99.90;0.60;95759.00;;;;5027786;28;20441;-76
2022/02/02 02:36:19;;;;;;;4.27;3.87;;;0.70;99.90;0.60;95762.00;;;;5027550;28;20439;-77
2022/02/02 02:39:26;;;;;;;4.57;2.60;;;0.80;99.90;0.70;95748.00;;;;5025051;28;21025;-75
2022/02/02 02:58:08;;;;;;;2.43;1.83;;;0.80;99.90;0.60;95756.00;;;;5018281;28;20857;-76
2022/02/02 03:01:14;;;;;;;1.80;1.70;;;0.90;99.90;0.60;95760.00;;;;5015576;28;20476;-75
2022/02/02 03:32:25;;;;;;;5.27;3.07;;;0.80;99.90;0.70;95725.00;;;;5026709;28;20436;-76
2022/02/02 03:35:24;;;;;;;3.63;3.10;;;0.80;99.90;0.70;95724.00;;;;5026369;28;20511;-76
2022/02/02 03:54:14;;;;;;;4.27;2.50;;;0.70;99.90;0.50;95758.00;;;;4999402;28;20448;-76
2022/02/02 03:57:34;;;;;;;2.80;2.30;;;0.70;99.90;0.50;95765.00;;;;5022943;28;20429;-76
2022/02/02 04:00:36;;;;;;;2.30;2.10;;;0.70;99.90;0.20;95759.00;;;;5022156;28;20472;-76
2022/02/02 04:06:43;;;;;;;2.70;2.40;;;0.70;99.90;0.10;95745.00;;;;5027609;28;20431;-77
2022/02/02 04:09:37;;;;;;;4.37;2.87;;;0.70;99.90;0.40;95729.00;;;;5025776;28;20432;-76
2022/02/02 04:12:41;;;;;;;3.00;2.80;;;0.70;99.90;0.60;95735.00;;;;5028021;28;20479;-77
2022/02/02 04:37:38;;;;;;;4.23;3.53;;;0.80;99.90;0.70;95711.00;;;;5030801;28;20424;-76
2022/02/02 04:53:38;;;;;;;6.53;3.47;;;0.90;99.90;0.60;95685.00;;;;5029547;28;20432;-76
2022/02/02 04:56:50;;;;;;;6.30;3.83;;;0.90;99.90;0.40;95683.00;;;;5027880;28;20747;-77
2022/02/02 04:59:49;;;;;;;4.53;3.40;;;0.90;99.90;0.50;95667.00;;;;5017616;28;20476;-77
2022/02/02 05:06:00;;;;;;;3.77;3.43;;;0.90;99.90;0.70;95683.00;;;;5028460;28;20451;-76
2022/02/02 05:08:56;;;;;;;3.27;2.90;;;0.90;99.90;0.50;95683.00;;;;5027767;28;20432;-77
2022/02/02 05:18:19;;;;;;;4.03;3.70;;;0.80;99.90;0.40;95700.00;;;;5029272;28;20424;-77
2022/02/02 05:21:37;;;;;;;3.47;2.83;;;0.80;99.90;0.40;95718.00;;;;5028192;28;20482;-76
2022/02/02 05:43:50;;;;;;;4.07;3.67;;;0.80;99.90;0.80;95743.00;;;;5017940;28;20523;-76
2022/02/02 05:50:05;;;;;;;4.93;3.50;;;0.90;99.90;0.90;95747.00;;;;5022858;28;20424;-76
2022/02/02 05:52:56;;;;;;;5.00;4.47;;;0.90;99.90;0.70;95742.00;;;;5018118;28;20413;-76
2022/02/02 05:55:46;;;;;;;5.00;4.03;;;1.00;99.90;0.70;95743.00;;;;5010924;28;20437;-76
2022/02/02 05:58:38;;;;;;;4.07;3.67;;;1.00;99.90;0.80;95747.00;;;;5013018;28;20425;-76
2022/02/02 06:01:28;;;;;;;4.97;3.87;;;1.00;99.90;0.90;95748.00;;;;5023826;28;20471;-76
2022/02/02 06:04:23;;;;;;;9.37;5.07;;;1.00;99.90;0.80;95740.00;;;;5026854;28;20436;-76
2022/02/02 06:07:13;;;;;;;6.20;5.00;;;1.00;99.90;0.80;95746.00;;;;5027904;28;20436;-76
2022/02/02 06:10:04;;;;;;;4.83;4.33;;;1.00;99.90;0.80;95753.00;;;;5005092;28;20484;-76
2022/02/02 06:12:55;;;;;;;7.97;4.73;;;1.00;99.90;0.90;95775.00;;;;5000823;28;20436;-76
2022/02/02 06:15:44;;;;;;;7.77;4.37;;;1.00;99.90;0.90;95774.00;;;;5003354;28;20436;-76
2022/02/02 06:18:36;;;;;;;6.27;4.80;;;1.00;99.90;0.80;95790.00;;;;5002736;28;20447;-76
2022/02/02 06:21:31;;;;;;;7.77;4.73;;;1.00;99.90;0.90;95803.00;;;;5004044;28;20472;-76
2022/02/02 06:24:31;;;;;;;7.47;3.90;;;1.00;99.90;0.90;95808.00;;;;5003065;28;20501;-76
2022/02/02 06:27:24;;;;;;;8.60;3.93;;;1.10;99.90;0.80;95810.00;;;;5002993;28;20449;-76
2022/02/02 06:30:13;;;;;;;4.33;3.93;;;1.10;99.90;0.60;95827.00;;;;5003823;28;20425;-75
2022/02/02 06:33:07;;;;;;;3.90;3.33;;;1.00;99.90;0.70;95833.00;;;;5003488;28;20440;-73
2022/02/02 06:35:56;;;;;;;3.37;2.97;;;1.00;99.90;0.80;95840.00;;;;5003479;28;20876;-76
2022/02/02 06:38:49;;;;;;;4.20;3.80;;;1.00;99.90;0.90;95865.00;;;;5002951;28;20448;-76
2022/02/02 06:41:38;;;;;;;3.63;2.77;;;1.00;99.90;1.00;95869.00;;;;5001546;28;20559;-76
2022/02/02 06:44:27;;;;;;;2.90;2.70;;;1.10;99.90;1.00;95884.00;;;;4999659;28;20444;-75
2022/02/02 06:47:17;;;;;;;3.67;3.37;;;1.10;99.90;1.10;95881.00;;;;5002188;28;20463;-75
2022/02/02 06:50:13;;;;;;;4.43;3.50;;;1.10;99.90;1.10;95873.00;;;;4994925;28;20759;-75
2022/02/02 06:53:13;;;;;;;3.13;2.83;;;1.10;99.90;1.00;95875.00;;;;5000995;28;20452;-75
2022/02/02 06:56:16;;;;;;;5.40;3.43;;;1.20;99.90;1.10;95859.00;;;;5002259;28;20436;-76
2022/02/02 06:59:20;;;;;;;5.03;3.07;;;1.20;99.90;1.20;95869.00;;;;5002550;28;20473;-75
2022/02/02 07:02:33;;;;;;;4.83;4.33;;;1.20;99.90;1.20;95868.00;;;;4999652;28;20475;-74
2022/02/02 07:05:32;;;;;;;4.20;3.17;;;1.30;99.90;1.30;95867.00;;;;5002679;28;20526;-74
2022/02/02 07:08:36;;;;;;;3.20;2.90;;;1.30;99.90;1.30;95858.00;;;;5001733;28;20459;-73
2022/02/02 07:11:39;;;;;;;3.60;3.30;;;1.30;99.90;1.00;95865.00;;;;4988639;28;20562;-74
2022/02/02 07:14:40;;;;;;;3.57;3.20;;;1.40;99.90;0.90;95860.00;;;;4993683;28;20550;-72
2022/02/02 07:17:46;;;;;;;3.73;3.43;;;1.30;99.90;1.10;95848.00;;;;4991924;28;20455;-74
2022/02/02 07:20:45;;;;;;;5.00;3.57;;;1.30;99.90;1.30;95839.00;;;;4994293;28;20476;-71
2022/02/02 07:23:50;;;;;;;2.97;2.73;;;1.30;99.90;1.10;95850.00;;;;4996491;28;20466;-74
2022/02/02 07:29:49;;;;;;;3.60;3.30;;;3.20;99.90;1.20;95828.00;;;;4998035;28;20441;-74
2022/02/02 07:32:43;;;;;;;3.23;2.93;;;0.60;99.90;1.20;95832.00;;;;4999901;28;20457;-74
2022/02/02 07:35:50;;;;;;;2.70;2.50;;;1.40;99.90;1.10;95855.00;;;;4996968;28;20681;-74
2022/02/02 07:38:55;;;;;;;4.33;3.90;;;1.40;99.90;1.00;95860.00;;;;4998813;28;21014;-74
2022/02/02 07:41:48;;;;;;;4.30;3.20;;;1.40;99.90;1.30;95855.00;;;;5000623;28;20474;-74
2022/02/02 07:44:41;;;;;;;3.37;3.07;;;1.40;99.90;1.30;95861.00;;;;4994388;28;21504;-73
2022/02/02 07:47:32;;;;;;;2.90;2.70;;;1.40;99.90;1.40;95860.00;;;;4996114;28;20523;-74
2022/02/02 07:50:24;;;;;;;2.70;2.50;;;1.40;99.90;1.30;95868.00;;;;4994131;28;20433;-73
2022/02/02 07:53:16;;;;;;;3.77;3.10;;;1.50;99.90;1.40;95870.00;;;;4996320;28;20442;-73
2022/02/02 07:56:11;;;;;;;4.17;3.53;;;1.50;99.90;1.00;95882.00;;;;4997226;28;20531;-74
2022/02/02 07:59:15;;;;;;;3.93;3.53;;;1.50;99.90;1.00;95877.00;;;;4994694;28;20575;-73
2022/02/02 08:02:05;;;;;;;3.77;3.17;;;1.50;99.90;1.20;95862.00;;;;4995856;28;20487;-74
2022/02/02 08:04:54;;;;;;;2.63;2.30;;;1.50;99.90;1.40;95883.00;;;;4999701;28;20938;-73
2022/02/02 08:07:48;;;;;;;5.40;3.17;;;1.50;99.90;1.50;95876.00;;;;5000554;28;20452;-74
2022/02/02 08:10:39;;;;;;;5.90;4.10;;;1.50;99.90;1.50;95869.00;;;;4997500;28;20844;-74
2022/02/02 08:13:37;;;;;;;6.40;3.97;;;1.60;99.90;1.40;95877.00;;;;4993840;28;20575;-73
2022/02/02 08:16:30;;;;;;;5.20;3.50;;;1.60;99.90;1.60;95880.00;;;;4998958;28;21058;-74
2022/02/02 08:19:21;;;;;;;9.90;3.47;;;1.60;99.90;1.70;95905.00;;;;4994299;28;20480;-73
2022/02/02 08:22:11;;;;;;;6.63;4.40;;;1.70;99.90;1.80;95917.00;;;;4995566;28;20479;-74
2022/02/02 08:25:03;;;;;;;6.77;6.13;;;1.70;99.90;1.90;95916.00;;;;4995996;28;20501;-74
2022/02/02 08:27:53;;;;;;;7.47;6.40;;;1.80;99.90;1.80;95919.00;;;;4997678;28;21142;-75
2022/02/02 08:30:43;;;;;;;8.67;6.20;;;1.80;99.90;1.90;95917.00;;;;4997551;28;20475;-74
2022/02/02 08:33:37;;;;;;;7.60;5.37;;;1.90;99.90;2.10;95928.00;;;;5003183;28;20455;-74
2022/02/02 08:36:27;;;;;;;5.50;4.40;;;2.00;99.90;2.20;95913.00;;;;4998476;28;20428;-74
2022/02/02 08:39:25;;;;;;;6.70;4.60;;;2.00;99.90;2.30;95922.00;;;;4998634;28;20490;-74
2022/02/02 08:42:15;;;;;;;3.63;3.33;;;2.10;99.90;2.30;95929.00;;;;4997808;28;22084;-74
2022/02/02 08:45:17;;;;;;;4.30;2.93;;;2.30;99.90;2.60;95932.00;;;;4995015;28;20445;-74
2022/02/02 08:48:09;;;;;;;3.47;3.17;;;2.30;99.90;2.70;95933.00;;;;4999723;28;20502;-74
2022/02/02 08:51:03;;;;;;;3.23;2.93;;;2.50;99.90;2.40;95943.00;;;;4999360;28;21075;-74
2022/02/02 08:54:06;;;;;;;3.00;2.67;;;2.50;99.90;2.20;95927.00;;;;4998380;28;20840;-74
2022/02/02 09:00:00;;;;;;;7.40;3.20;;;2.50;99.90;2.40;95925.00;;;;4994028;28;20452;-71
2022/02/02 09:05:18;;;;;;;3.70;3.37;;;2.50;99.90;2.50;95935.00;;;;5001015;28;20472;-75
2022/02/02 09:06:03;;;;;;;3.37;3.07;;;2.50;99.90;2.40;95937.00;;;;5000069;28;20591;-76
2022/02/02 09:09:04;;;;;;;3.93;3.00;;;2.60;99.90;2.50;95944.00;;;;4997009;28;20440;-78
2022/02/02 09:24:24;;;;;;;5.47;3.97;;;2.70;99.90;2.50;95976.00;;;;5011309;28;20444;-77
2022/02/02 09:33:52;;;;;;;3.37;2.27;;;2.70;99.90;2.30;95974.00;;;;5007073;28;20846;-79
2022/02/02 09:36:43;;;;;;;4.10;2.53;;;2.70;99.90;2.60;95977.00;;;;5012713;28;20830;-79
2022/02/02 09:39:38;;;;;;;4.07;3.33;;;2.80;99.90;2.80;95967.00;;;;5007565;28;20487;-78
2022/02/02 09:42:32;;;;;;;4.10;2.80;;;2.90;99.90;3.60;95978.00;;;;5008519;28;20535;-77
2022/02/02 09:45:23;;;;;;;3.57;3.00;;;3.10;99.90;3.80;95990.00;;;;5007697;28;21086;-77
2022/02/02 09:48:21;;;;;;;1.87;1.60;;;3.40;99.90;3.90;96009.00;;;;5002485;28;20506;-77
2022/02/02 09:51:16;;;;;;;3.67;2.97;;;3.60;99.90;4.20;96002.00;;;;5002132;28;21245;-76
2022/02/02 09:54:13;;;;;;;4.97;3.27;;;3.70;99.90;4.50;96006.00;;;;5001850;28;20208;-77
2022/02/02 10:00:46;;;;;;;11.23;3.80;;;4.10;99.90;4.70;96014.00;;;;5000871;28;20212;-77
2022/02/02 10:03:52;;;;;;;4.53;3.77;;;4.30;99.90;4.90;96013.00;;;;4999746;28;20374;-76
2022/02/02 10:06:54;;;;;;;15.80;3.57;;;4.40;99.90;4.90;95993.00;;;;5002374;28;20214;-77
2022/02/02 10:09:55;;;;;;;8.13;3.30;;;4.60;99.90;5.00;95993.00;;;;5002506;28;20652;-77
2022/02/02 10:13:04;;;;;;;6.30;4.43;;;4.70;99.90;5.60;95986.00;;;;4999365;28;20278;-77
2022/02/02 10:16:16;;;;;;;5.77;3.47;;;4.90;99.90;6.10;95957.00;;;;5006401;28;20240;-78
2022/02/02 10:19:16;;;;;;;6.07;4.23;;;5.20;99.90;6.60;95964.00;;;;5004104;28;20348;-78
2022/02/02 10:22:27;;;;;;;3.63;1.70;;;5.60;99.90;6.00;95955.00;;;;4999646;28;20229;-77
2022/02/02 10:25:27;;;;;;;8.80;5.13;;;6.00;99.90;6.70;95964.00;;;;5002668;28;20213;-77
2022/02/02 10:28:18;;;;;;;25.00;13.27;;;6.20;99.90;6.70;95975.00;;;;5002674;28;20213;-77
2022/02/02 10:31:08;;;;;;;10.07;5.87;;;6.30;99.90;6.60;95984.00;;;;5003607;28;20641;-77
2022/02/02 10:34:12;;;;;;;7.13;3.20;;;6.40;99.90;5.20;95963.00;;;;4995372;28;20244;-78
2022/02/02 10:37:19;;;;;;;9.87;3.07;;;6.20;99.90;5.00;95974.00;;;;5002799;28;20211;-76
2022/02/02 10:40:09;;;;;;;5.43;3.33;;;5.80;99.90;4.80;95973.00;;;;5005150;28;20198;-77
2022/02/02 10:43:00;;;;;;;8.03;4.10;;;5.60;99.90;5.10;95982.00;;;;4999000;28;20690;-76
2022/02/02 10:45:50;;;;;;;4.93;3.10;;;5.40;99.90;5.30;95986.00;;;;5001731;28;20304;-77
2022/02/02 10:48:43;;;;;;;4.07;2.63;;;5.30;99.90;5.40;95985.00;;;;5003763;28;22083;-77
2022/02/02 10:51:39;;;;;;;2.67;2.47;;;5.30;99.90;5.60;95996.00;;;;5003560;28;20772;-77
2022/02/02 10:54:34;;;;;;;3.17;2.77;;;5.40;99.90;5.70;95990.00;;;;5012634;28;20210;-77
2022/02/02 10:57:36;;;;;;;7.90;3.90;;;5.40;99.90;5.90;95981.00;;;;5003048;28;20221;-77
2022/02/02 11:00:33;;;;;;;6.17;3.57;;;5.50;99.90;5.90;95967.00;;;;5005890;28;20215;-77
2022/02/02 11:06:38;;;;;;;3.73;2.53;;;5.60;99.90;6.60;95937.00;;;;5003034;28;21806;-78
2022/02/02 11:09:27;;;;;;;4.63;2.40;;;5.80;99.90;6.80;95957.00;;;;5004234;28;20205;-77
2022/02/02 11:12:18;;;;;;;1.87;1.37;;;6.10;99.90;7.00;95961.00;;;;5001526;28;20314;-77
2022/02/02 11:15:22;;;;;;;2.67;1.20;;;6.30;99.90;7.50;95965.00;;;;5003885;28;20218;-77
2022/02/02 11:18:22;;;;;;;3.30;2.17;;;6.70;99.90;7.30;96001.00;;;;5003215;28;20198;-77
2022/02/02 11:21:14;;;;;;;3.13;2.60;;;6.80;99.90;7.00;96007.00;;;;4999895;28;20237;-76
2022/02/02 11:24:17;;;;;;;4.37;3.27;;;6.80;99.90;6.70;96021.00;;;;5000456;28;22010;-77
2022/02/02 11:27:09;;;;;;;2.53;2.13;;;6.70;99.90;6.50;96047.00;;;;4999566;28;20238;-76
2022/02/02 11:29:58;;;;;;;4.87;2.23;;;6.60;99.90;6.10;96061.00;;;;4999894;28;20205;-77
2022/02/02 11:32:47;;;;;;;1.60;1.50;;;6.40;99.90;5.80;96073.00;;;;4998812;28;20234;-75
2022/02/02 11:35:45;;;;;;;5.10;2.07;;;6.20;99.90;5.70;96094.00;;;;5002793;28;20214;-76
2022/02/02 11:38:53;;;;;;;3.90;1.70;;;6.00;99.90;5.90;96096.00;;;;4997650;28;20221;-75
2022/02/02 11:41:59;;;;;;;3.47;1.30;;;6.90;99.90;5.80;96106.00;;;;5000353;28;20758;-77
2022/02/02 11:44:54;;;;;;;2.40;1.40;;;5.80;99.90;5.40;96113.00;;;;4996091;28;20213;-75
2022/02/02 11:48:06;;;;;;;1.50;0.90;;;7.00;99.90;5.30;96103.00;;;;4998664;28;20715;-76
2022/02/02 11:50:57;;;;;;;1.57;1.13;;;5.50;99.90;5.10;96094.00;;;;4999407;28;20356;-76
2022/02/02 11:54:01;;;;;;;0.90;0.90;;;5.30;99.90;4.90;96093.00;;;;5002342;28;20248;-81
2022/02/02 11:57:19;;;;;;;3.40;0.87;;;5.20;99.90;4.70;96093.00;;;;5001945;28;20200;-81
2022/02/02 12:00:37;;;;;;;0.50;0.50;;;5.10;99.90;4.40;96086.00;;;;4999744;28;20673;-81
2022/02/02 12:03:57;;;;;;;0.63;0.63;;;4.90;99.90;4.40;96097.00;;;;5002448;28;20225;-80
2022/02/02 12:06:59;;;;;;;0.83;0.80;;;4.80;99.90;3.80;96100.00;;;;5003419;28;20270;-83
2022/02/02 12:09:55;;;;;;;0.67;0.63;;;4.60;99.90;4.00;96097.00;;;;5003071;28;20213;-82
2022/02/02 12:19:42;;;;;;;1.23;0.83;;;4.30;99.90;4.70;96079.00;;;;5004104;28;20209;-77
2022/02/02 12:47:55;;;;;;;1.47;1.20;;;5.90;99.90;6.00;96070.00;;;;5010378;28;20229;-77
2022/02/02 12:54:48;;;;;;;0.70;0.70;;;5.80;99.90;5.50;96089.00;;;;5010794;28;20209;-77
2022/02/02 12:57:38;;;;;;;1.20;1.10;;;5.70;99.90;5.70;96110.00;;;;5016029;28;20253;-76
2022/02/02 13:00:36;;;;;;;0.63;0.63;;;5.70;99.90;5.40;96105.00;;;;5013478;28;20214;-77
2022/02/02 13:03:29;;;;;;;0.70;0.70;;;5.60;99.90;4.90;96117.00;;;;5016435;28;20279;-76
2022/02/02 13:06:23;;;;;;;2.53;1.10;;;5.50;99.90;4.70;96125.00;;;;5014269;28;20235;-77
2022/02/02 13:09:16;;;;;;;2.63;1.17;;;5.30;99.90;4.70;96134.00;;;;5010083;28;21475;-76
2022/02/02 13:12:23;;;;;;;1.23;1.07;;;5.10;99.90;4.80;96140.00;;;;5009924;28;20226;-77
2022/02/02 13:15:27;;;;;;;1.10;1.00;;;5.00;99.90;4.90;96159.00;;;;5010938;28;20218;-77
2022/02/02 13:18:22;;;;;;;8.60;1.03;;;4.90;99.90;5.00;96152.00;;;;5008958;28;20766;-76
2022/02/02 13:21:15;;;;;;;1.13;0.83;;;4.80;99.90;4.90;96168.00;;;;5009475;28;20221;-77
2022/02/02 13:24:12;;;;;;;1.33;0.80;;;4.80;99.90;4.80;96142.00;;;;5012958;28;21000;-76
2022/02/02 13:27:06;;;;;;;0.97;0.90;;;4.70;99.90;4.90;96128.00;;;;5013237;28;20478;-79
2022/02/02 13:29:58;;;;;;;1.13;0.80;;;4.80;99.90;5.40;96115.00;;;;5008352;28;20213;-78
2022/02/02 13:32:52;;;;;;;1.07;0.80;;;4.80;99.90;6.60;96095.00;;;;5007028;28;20230;-76
2022/02/02 13:35:53;;;;;;;1.27;1.07;;;5.40;99.90;7.30;96108.00;;;;5005559;28;20658;-78
2022/02/02 13:45:23;;;;;;;1.07;0.67;;;6.70;99.90;4.90;96130.00;;;;5006557;28;20243;-78
2022/02/02 13:51:53;;;;;;;1.17;1.00;;;5.70;99.90;4.80;96146.00;;;;5004915;28;20745;-83
2022/02/02 13:54:46;;;;;;;0.40;0.40;;;5.40;99.90;4.10;96133.00;;;;5008004;28;20205;-81
2022/02/02 13:58:02;;;;;;;0.53;0.53;;;5.20;99.90;4.60;96136.00;;;;5005371;28;20676;-77
2022/02/02 14:01:07;;;;;;;0.60;0.57;;;5.00;99.90;4.80;96137.00;;;;5007019;28;20268;-79
2022/02/02 14:04:07;;;;;;;0.40;0.40;;;4.90;99.90;4.90;96145.00;;;;5004504;28;20367;-78
2022/02/02 14:07:10;;;;;;;0.30;0.30;;;4.90;99.90;5.20;96152.00;;;;5002824;28;20839;-77
2022/02/02 14:10:13;;;;;;;0.50;0.50;;;4.90;99.90;5.10;96149.00;;;;5007186;28;20300;-77
2022/02/02 14:31:49;;;;;;;0.60;0.37;;;4.80;99.90;4.90;96204.00;;;;5005235;28;20229;-76
2022/02/02 14:34:59;;;;;;;1.03;0.50;;;4.90;99.90;5.60;96191.00;;;;5005848;28;20210;-77
2022/02/02 14:37:50;;;;;;;0.30;0.30;;;5.00;99.90;6.20;96174.00;;;;5009327;28;20790;-76
2022/02/02 14:40:45;;;;;;;1.17;1.07;;;5.30;99.90;6.80;96173.00;;;;5008884;28;20291;-77
2022/02/02 14:43:39;;;;;;;1.67;0.80;;;5.90;99.90;7.40;96184.00;;;;5007294;28;20206;-77
2022/02/02 14:46:34;;;;;;;1.27;0.67;;;6.40;99.90;7.20;96223.00;;;;5009778;28;20550;-80
2022/02/02 14:49:30;;;;;;;1.33;0.70;;;7.00;99.90;7.30;96231.00;;;;5007470;28;20205;-74
2022/02/02 14:52:29;;;;;;;0.50;0.50;;;7.10;99.90;7.30;96215.00;;;;5003145;28;20317;-76
2022/02/02 14:55:51;;;;;;;3.50;1.70;;;7.20;99.90;7.10;96245.00;;;;5007195;28;20685;-77
2022/02/02 15:29:55;;;;;;;1.60;0.70;;;5.00;99.90;4.00;96276.00;;;;5004620;28;20217;-78
2022/02/02 15:32:47;;;;;;;1.57;0.80;;;4.80;99.90;4.00;96288.00;;;;5003351;28;20948;-78
2022/02/02 15:35:41;;;;;;;1.90;1.10;;;4.60;99.90;4.00;96294.00;;;;5006908;28;20216;-79
2022/02/02 15:38:30;;;;;;;1.33;0.80;;;4.40;99.90;4.00;96307.00;;;;5008193;28;20279;-78
2022/02/02 15:41:24;;;;;;;1.00;0.90;;;4.30;99.90;4.00;96331.00;;;;5008248;28;20451;-78
2022/02/02 16:03:05;;;;;;;3.30;0.90;;;3.40;99.90;3.10;96383.00;;;;5004461;28;20236;-78
2022/02/02 16:05:59;;;;;;;0.93;0.90;;;3.30;99.90;3.20;96386.00;;;;5003446;28;20238;-77
2022/02/02 16:08:57;;;;;;;1.67;0.57;;;3.30;99.90;3.10;96380.00;;;;5003231;28;20259;-77
2022/02/02 16:11:53;;;;;;;0.83;0.60;;;3.20;99.90;3.00;96381.00;;;;5001995;28;20538;-78
2022/02/02 16:14:45;;;;;;;0.60;0.60;;;3.20;99.90;2.90;96385.00;;;;5002654;28;20437;-80
2022/02/02 16:17:59;;;;;;;0.57;0.57;;;3.10;99.90;2.80;96367.00;;;;5004879;28;20871;-79
2022/02/02 16:36:24;;;;;;;1.43;1.00;;;2.70;99.90;2.50;96446.00;;;;5015257;28;20425;-81
2022/02/02 16:39:20;;;;;;;1.30;0.97;;;2.60;99.90;2.50;96437.00;;;;5016063;28;20445;-78
2022/02/02 16:45:16;;;;;;;2.10;1.63;;;2.60;99.90;2.80;96459.00;;;;5008457;28;20791;-81
2022/02/02 16:48:06;;;;;;;2.53;1.73;;;2.80;99.90;2.50;96458.00;;;;5014800;28;20607;-79
2022/02/02 16:50:57;;;;;;;2.00;1.37;;;2.80;99.90;2.70;96459.00;;;;5016678;28;20460;-79
2022/02/02 16:53:49;;;;;;;1.40;1.30;;;2.80;99.90;2.60;96449.00;;;;5013233;28;20466;-81
2022/02/02 16:56:56;;;;;;;1.40;1.07;;;2.80;99.90;2.50;96447.00;;;;5012982;28;20493;-80
2022/02/02 17:31:09;;;;;;;2.10;1.07;;;2.20;99.90;1.80;96502.00;;;;4976171;28;20465;-76
2022/02/02 17:34:02;;;;;;;1.23;1.13;;;2.20;99.90;2.00;96519.00;;;;5008613;28;20437;-77
2022/02/02 17:36:57;;;;;;;0.87;0.60;;;2.20;99.90;2.20;96526.00;;;;5014335;28;20436;-73
2022/02/02 17:39:56;;;;;;;0.93;0.70;;;2.30;99.90;2.30;96535.00;;;;5012751;28;21375;-76
2022/02/02 17:55:58;;;;;;;3.27;0.77;;;2.50;99.90;2.40;96506.00;;;;5002565;28;20534;-75
2022/02/02 18:20:47;;;;;;;5.13;1.80;;;2.10;99.90;1.80;96541.00;;;;5007969;28;20433;-82
2022/02/02 18:23:45;;;;;;;1.23;0.80;;;2.20;99.90;1.70;96551.00;;;;5015891;28;20441;-80
2022/02/02 18:26:39;;;;;;;0.80;0.80;;;2.20;99.90;1.90;96562.00;;;;5014720;28;20902;-82
2022/02/02 18:29:37;;;;;;;0.83;0.83;;;2.20;99.90;1.40;96565.00;;;;5025893;28;20424;-77
2022/02/02 18:32:40;;;;;;;1.77;0.80;;;2.10;99.90;2.20;96574.00;;;;5031228;28;20461;-83
2022/02/02 18:35:36;;;;;;;4.43;1.33;;;2.20;99.90;2.30;96579.00;;;;5024280;28;20441;-82
2022/02/02 18:45:02;;;;;;;0.70;0.40;;;1.30;99.90;2.70;96619.00;;;;5005564;28;20546;-80
2022/02/02 18:48:02;;;;;;;0.77;0.60;;;3.20;99.90;2.80;96618.00;;;;5002125;28;20449;-77
2022/02/02 18:51:09;;;;;;;2.83;0.53;;;3.00;99.90;3.00;96625.00;;;;5008040;28;20976;-78
2022/02/02 18:54:17;;;;;;;1.00;0.90;;;3.10;99.90;3.30;96635.00;;;;5010003;28;20521;-78
2022/02/02 18:57:31;;;;;;;1.40;1.10;;;3.20;99.90;3.10;96636.00;;;;5007184;28;21228;-78
2022/02/02 19:00:34;;;;;;;2.50;0.73;;;3.20;99.90;2.80;96629.00;;;;5010615;28;20515;-79
2022/02/02 19:03:47;;;;;;;0.80;0.70;;;3.20;99.90;2.70;96609.00;;;;5000845;28;20448;-77
2022/02/02 19:06:55;;;;;;;0.40;0.40;;;3.10;99.90;2.60;96612.00;;;;5013342;28;20468;-79
2022/02/02 19:38:27;;;;;;;2.30;0.70;;;2.60;99.90;2.70;96645.00;;;;5006166;28;20437;-83
2022/02/02 19:57:20;;;;;;;0.63;0.50;;;3.00;99.90;2.80;96692.00;;;;5116830;27;20667;-86
2022/02/02 20:06:46;;;;;;;2.13;0.70;;;3.10;99.90;2.90;96690.00;;;;5094067;28;20576;-78
2022/02/02 20:12:45;;;;;;;0.33;0.33;;;3.00;99.90;3.10;96673.00;;;;5105111;28;20449;-84
2022/02/02 20:15:39;;;;;;;0.50;0.50;;;3.00;99.90;2.90;96696.00;;;;5099129;28;20466;-83
2022/02/02 20:18:31;;;;;;;3.20;0.80;;;3.00;99.90;2.80;96701.00;;;;5104643;28;20436;-83
2022/02/02 20:21:23;;;;;;;1.50;0.30;;;3.00;99.90;2.90;96701.00;;;;5108420;28;20453;-83
2022/02/02 20:24:12;;;;;;;1.07;0.60;;;3.10;99.90;2.80;96707.00;;;;5097902;28;20528;-84
2022/02/02 20:27:02;;;;;;;0.40;0.40;;;2.90;99.90;2.80;96697.00;;;;5096655;28;20453;-83
2022/02/02 20:29:53;;;;;;;3.43;0.57;;;2.90;99.90;2.80;96707.00;;;;5096080;28;20513;-84
2022/02/02 20:32:42;;;;;;;0.97;0.60;;;2.90;99.90;2.80;96710.00;;;;5100807;28;20448;-82
2022/02/02 20:35:31;;;;;;;0.63;0.40;;;2.90;99.90;2.70;96698.00;;;;5101681;28;20469;-84